createdAt,value
2022-12-20T00:05:30.978Z,98753.6
2022-12-20T00:11:07.553Z,98769.6
2022-12-20T00:16:42.565Z,98740.8
2022-12-20T00:22:17.493Z,98733.6
2022-12-20T00:27:52.805Z,98735.3
2022-12-20T00:33:28.339Z,98725.3
2022-12-20T00:39:03.460Z,98742.1
2022-12-20T00:44:39.138Z,98746.9
2022-12-20T00:50:14.752Z,98729.4
2022-12-20T00:55:49.471Z,98713
2022-12-20T01:01:25.516Z,98722.2
2022-12-20T01:07:03.812Z,98708.2
2022-12-20T01:12:38.850Z,98714.1
2022-12-20T01:18:13.955Z,98701
2022-12-20T01:23:50.329Z,98695.8
2022-12-20T01:29:25.304Z,98729.5
2022-12-20T01:35:00.787Z,98724.6
2022-12-20T01:40:36.094Z,98685.4
2022-12-20T01:46:33.533Z,98678.7
2022-12-20T01:52:07.594Z,98684.3
2022-12-20T01:57:43.323Z,98677.6
2022-12-20T02:03:20.175Z,98673.1
2022-12-20T02:08:57.668Z,98694.9
2022-12-20T02:14:33.450Z,98695
2022-12-20T02:20:08.424Z,98673.4
2022-12-20T02:25:43.625Z,98663
2022-12-20T02:31:18.673Z,98660.9
2022-12-20T02:36:55.178Z,98650.7
2022-12-20T02:42:30.480Z,98644.5
2022-12-20T02:48:27.444Z,98644
2022-12-20T02:54:01.162Z,98651.7
2022-12-20T02:59:36.658Z,98643.5
2022-12-20T03:05:12.261Z,98644.5
2022-12-20T03:10:48.102Z,98625
2022-12-20T03:16:24.137Z,98608.1
2022-12-20T03:22:03.573Z,98597.9
2022-12-20T03:27:38.774Z,98601.2
2022-12-20T03:33:14.174Z,98591.2
2022-12-20T03:38:50.006Z,98602.2
2022-12-20T03:44:25.148Z,98616
2022-12-20T03:50:02.750Z,98603.8
2022-12-20T03:55:38.209Z,98595.2
2022-12-20T04:01:13.665Z,98593.5
2022-12-20T04:06:49.411Z,98598
2022-12-20T04:12:25.244Z,98600
2022-12-20T04:18:00.160Z,98598.9
2022-12-20T04:23:35.090Z,98602.7
2022-12-20T04:29:17.857Z,98598.5
2022-12-20T04:34:52.934Z,98603
2022-12-20T04:40:28.040Z,98601.2
2022-12-20T04:46:03.933Z,98589.3
2022-12-20T04:51:40.756Z,98597.9
2022-12-20T04:57:15.874Z,98601.6
2022-12-20T05:02:52.695Z,98600.5
2022-12-20T05:08:29.727Z,98599.9
2022-12-20T05:14:06.105Z,98587.5
2022-12-20T05:19:41.410Z,98572.2
2022-12-20T05:25:17.767Z,98574.8
2022-12-20T05:30:55.294Z,98590.5
2022-12-20T05:36:30.986Z,98544.2
2022-12-20T05:42:06.220Z,98555.9
2022-12-20T05:48:03.586Z,98553.5
2022-12-20T05:53:36.632Z,98544.5
2022-12-20T05:59:11.850Z,98542.6
2022-12-20T06:04:47.775Z,98540.4
2022-12-20T06:10:23.160Z,98542.7
2022-12-20T06:15:58.827Z,98530.8
2022-12-20T06:21:34.751Z,98539.3
2022-12-20T06:27:09.975Z,98534.2
2022-12-20T06:32:45.506Z,98527
2022-12-20T06:38:21.134Z,98542.1
2022-12-20T06:43:56.302Z,98555.2
2022-12-20T06:49:52.892Z,98540.6
2022-12-20T06:55:26.054Z,98558.9
2022-12-20T07:01:01.782Z,98550.5
2022-12-20T07:06:38.689Z,98565.4
2022-12-20T07:12:13.962Z,98585.7
2022-12-20T07:17:50.571Z,98588.8
2022-12-20T07:23:47.599Z,98588.8
2022-12-20T07:29:23.282Z,98573.8
2022-12-20T07:35:02.399Z,98586.2
2022-12-20T07:40:38.217Z,98592.8
2022-12-20T07:46:36.072Z,98562.4
2022-12-20T07:52:10.578Z,98556.3
2022-12-20T07:57:46.638Z,98558.3
2022-12-20T08:03:23.489Z,98573.3
2022-12-20T08:09:00.880Z,98572.9
2022-12-20T08:14:36.405Z,98576.1
2022-12-20T08:20:11.401Z,98588.5
2022-12-20T08:25:46.500Z,98577.4
2022-12-20T08:31:22.307Z,98582.7
2022-12-20T08:37:00.312Z,98592.3
2022-12-20T08:42:35.916Z,98611
2022-12-20T08:48:34.633Z,98620.3
2022-12-20T08:54:08.873Z,98616
2022-12-20T08:59:43.773Z,98628.2
2022-12-20T09:05:19.182Z,98634.8
2022-12-20T09:10:54.542Z,98630.7
2022-12-20T09:16:30.505Z,98640.7
2022-12-20T09:22:09.443Z,98626.1
2022-12-20T09:27:45.683Z,98622.7
2022-12-20T09:33:21.575Z,98605.5
2022-12-20T09:38:56.734Z,98594
2022-12-20T09:44:32.407Z,98598.6
2022-12-20T09:50:07.852Z,98594
2022-12-20T09:55:43.083Z,98583.3
2022-12-20T10:01:28.844Z,98574.1
2022-12-20T10:07:16.000Z,98585.7
2022-12-20T10:12:54.277Z,98588.7
2022-12-20T10:18:32.212Z,98581.3
2022-12-20T10:24:15.356Z,98578.8
2022-12-20T10:29:50.696Z,98597.6
2022-12-20T10:35:26.584Z,98591.5
2022-12-20T10:41:23.799Z,98597.4
2022-12-20T10:47:21.056Z,98570.8
2022-12-20T10:52:55.099Z,98544.1
2022-12-20T10:58:30.903Z,98529.7
2022-12-20T11:04:07.001Z,98538
2022-12-20T11:09:44.567Z,98544
2022-12-20T11:15:35.259Z,98547.5
2022-12-20T11:21:27.824Z,98549.4
2022-12-20T11:27:04.466Z,98554.9
2022-12-20T11:32:49.776Z,98536.5
2022-12-20T11:38:25.531Z,98519.5
2022-12-20T11:44:28.021Z,98504.4
2022-12-20T11:50:04.153Z,98517.5
2022-12-20T11:55:40.818Z,98525
2022-12-20T12:01:16.169Z,98511.4
2022-12-20T12:06:52.091Z,98523.8
2022-12-20T12:12:27.378Z,98508.1
2022-12-20T12:18:03.295Z,98500.7
2022-12-20T12:23:38.776Z,98499.4
2022-12-20T12:29:15.657Z,98504.1
2022-12-20T12:34:51.829Z,98486.6
2022-12-20T12:40:27.945Z,98458.2
2022-12-20T12:46:14.954Z,98468.8
2022-12-20T12:51:51.018Z,98482.1
2022-12-20T12:57:27.761Z,98449.4
2022-12-20T13:03:04.351Z,98481.9
2022-12-20T13:08:41.320Z,98475.8
2022-12-20T13:14:19.188Z,98465.1
2022-12-20T13:19:54.952Z,98479.1
2022-12-20T13:25:30.528Z,98478.8
2022-12-20T13:31:05.984Z,98503.7
2022-12-20T13:36:42.564Z,98498.3
2022-12-20T13:42:18.063Z,98486.7
2022-12-20T13:47:53.216Z,98471.6
2022-12-20T13:53:28.470Z,98485.8
2022-12-20T13:59:04.952Z,98512.3
2022-12-20T14:04:44.028Z,98492.1
2022-12-20T14:10:23.986Z,98499.7
2022-12-20T14:15:59.620Z,98476.6
2022-12-20T14:21:35.135Z,98478.8
2022-12-20T14:27:10.236Z,98494.6
2022-12-20T14:32:45.440Z,98494.1
2022-12-20T14:38:22.589Z,98499.8
2022-12-20T14:43:58.198Z,98494.1
2022-12-20T14:49:34.897Z,98493.6
2022-12-20T14:55:12.346Z,98501.4
2022-12-20T15:00:47.973Z,98501.3
2022-12-20T15:06:24.200Z,98507.7
2022-12-20T15:12:01.008Z,98531.6
2022-12-20T15:17:36.382Z,98557
2022-12-20T15:23:11.902Z,98568.3
2022-12-20T15:28:48.536Z,98561.9
2022-12-20T15:34:23.592Z,98584.6
2022-12-20T15:39:58.835Z,98592.6
2022-12-20T15:45:34.219Z,98593.9
2022-12-20T15:51:10.119Z,98575.7
2022-12-20T15:56:45.239Z,98578.2
2022-12-20T16:02:22.413Z,98567.8
2022-12-20T16:07:59.403Z,98549.5
2022-12-20T16:13:35.033Z,98540.6
2022-12-20T16:19:10.027Z,98541.5
2022-12-20T16:24:44.942Z,98514.7
2022-12-20T16:30:21.134Z,98562.3
2022-12-20T16:35:56.313Z,98548.7
2022-12-20T16:41:31.811Z,98550.7
2022-12-20T16:47:29.051Z,98536.4
2022-12-20T16:53:02.073Z,98527.9
2022-12-20T16:59:22.697Z,98520.4
2022-12-20T17:04:59.892Z,98534.1
2022-12-20T17:10:35.359Z,98544.4
2022-12-20T17:16:10.981Z,98556.9
2022-12-20T17:22:24.081Z,98552
2022-12-20T17:28:19.323Z,98554.3
2022-12-20T17:33:54.770Z,98560.5
2022-12-20T17:39:30.409Z,98566.3
2022-12-20T17:45:05.595Z,98570.3
2022-12-20T17:50:49.731Z,98578.1
2022-12-20T17:56:26.155Z,98579.3
2022-12-20T18:02:02.042Z,98588.7
2022-12-20T18:07:38.966Z,98597
2022-12-20T18:13:15.021Z,98618.1
2022-12-20T18:18:54.196Z,98633.3
2022-12-20T18:24:29.628Z,98631.9
2022-12-20T18:30:04.882Z,98644
2022-12-20T18:35:40.189Z,98647.3
2022-12-20T18:41:20.871Z,98656
2022-12-20T18:47:17.885Z,98661
2022-12-20T18:53:01.982Z,98662.5
2022-12-20T18:58:37.239Z,98642.9
2022-12-20T19:04:12.539Z,98637
2022-12-20T19:09:50.691Z,98612.9
2022-12-20T19:15:29.461Z,98609.5
2022-12-20T19:21:05.098Z,98588.7
2022-12-20T19:26:40.880Z,98573
2022-12-20T19:32:16.935Z,98566
2022-12-20T19:37:52.064Z,98559.3
2022-12-20T19:43:27.596Z,98567.6
2022-12-20T19:49:24.729Z,98583.5
2022-12-20T19:54:57.547Z,98587.3
2022-12-20T20:00:33.111Z,98602
2022-12-20T20:06:08.330Z,98608.9
2022-12-20T20:11:43.743Z,98616.7
2022-12-20T20:17:20.557Z,98613.9
2022-12-20T20:22:57.114Z,98622
2022-12-20T20:28:45.701Z,98632.5
2022-12-20T20:34:21.637Z,98625.9
2022-12-20T20:39:57.171Z,98608.9
2022-12-20T20:45:32.539Z,98609.1
2022-12-20T20:51:09.049Z,98619.9
2022-12-20T20:56:44.038Z,98631.1
2022-12-20T21:02:20.869Z,98621.5
2022-12-20T21:07:59.015Z,98625.5
2022-12-20T21:13:34.363Z,98638.4
2022-12-20T21:19:09.656Z,98650.8
2022-12-20T21:24:45.366Z,98651.7
2022-12-20T21:30:21.190Z,98654.5
2022-12-20T21:35:56.548Z,98685.8
2022-12-20T21:41:32.554Z,98707.4
2022-12-20T21:47:29.702Z,98720
2022-12-20T21:53:03.034Z,98716
2022-12-20T21:58:38.148Z,98743.7
2022-12-20T22:04:13.439Z,98757.8
2022-12-20T22:09:49.836Z,98756.6
2022-12-20T22:15:26.366Z,98748.4
2022-12-20T22:21:01.704Z,98745.4
2022-12-20T22:26:37.660Z,98766.8
2022-12-20T22:32:13.577Z,98783.1
2022-12-20T22:37:50.032Z,98780.3
2022-12-20T22:43:25.495Z,98798.5
2022-12-20T22:49:22.320Z,98804.5
2022-12-20T22:54:55.012Z,98809.6
2022-12-20T23:00:31.529Z,98816.6
2022-12-20T23:06:06.456Z,98810.3
2022-12-20T23:11:41.483Z,98817.5
2022-12-20T23:17:16.674Z,98815.7
2022-12-20T23:22:51.523Z,98804.3
2022-12-20T23:28:26.567Z,98797.4
2022-12-20T23:34:02.522Z,98792.8
2022-12-20T23:39:38.449Z,98805.2
2022-12-20T23:45:15.924Z,98827.8
2022-12-20T23:50:51.323Z,98835.9
2022-12-20T23:56:26.176Z,98842
